sensor_id;sensor_type;location;lat;lon;timestamp;P1;durP1;ratioP1;P2;durP2;ratioP2
59872;SDS011;50750;51.636;4.948;2022-08-19T00:04:13;3.50;;;2.40;;
59872;SDS011;50750;51.636;4.948;2022-08-19T00:06:42;4.20;;;2.60;;
59872;SDS011;50750;51.636;4.948;2022-08-19T00:09:12;4.50;;;2.60;;
59872;SDS011;50750;51.636;4.948;2022-08-19T00:11:42;3.70;;;2.10;;
59872;SDS011;50750;51.636;4.948;2022-08-19T00:14:10;3.50;;;2.60;;
59872;SDS011;50750;51.636;4.948;2022-08-19T00:16:38;3.20;;;2.40;;
59872;SDS011;50750;51.636;4.948;2022-08-19T00:19:06;3.20;;;2.30;;
59872;SDS011;50750;51.636;4.948;2022-08-19T00:21:34;3.20;;;2.20;;
59872;SDS011;50750;51.636;4.948;2022-08-19T00:24:06;3.30;;;2.40;;
59872;SDS011;50750;51.636;4.948;2022-08-19T00:26:35;3.50;;;2.60;;
59872;SDS011;50750;51.636;4.948;2022-08-19T00:29:03;3.30;;;2.40;;
59872;SDS011;50750;51.636;4.948;2022-08-19T00:31:30;3.20;;;2.30;;
59872;SDS011;50750;51.636;4.948;2022-08-19T00:33:57;3.30;;;2.30;;
59872;SDS011;50750;51.636;4.948;2022-08-19T00:36:24;3.90;;;2.60;;
59872;SDS011;50750;51.636;4.948;2022-08-19T00:38:50;3.70;;;2.70;;
59872;SDS011;50750;51.636;4.948;2022-08-19T00:41:19;3.40;;;2.40;;
59872;SDS011;50750;51.636;4.948;2022-08-19T00:43:57;3.80;;;2.70;;
59872;SDS011;50750;51.636;4.948;2022-08-19T00:46:26;3.30;;;2.60;;
59872;SDS011;50750;51.636;4.948;2022-08-19T00:48:53;3.50;;;2.20;;
59872;SDS011;50750;51.636;4.948;2022-08-19T00:51:20;3.10;;;2.40;;
59872;SDS011;50750;51.636;4.948;2022-08-19T00:53:48;2.80;;;2.20;;
59872;SDS011;50750;51.636;4.948;2022-08-19T00:56:14;3.20;;;2.50;;
59872;SDS011;50750;51.636;4.948;2022-08-19T00:58:41;3.30;;;2.70;;
59872;SDS011;50750;51.636;4.948;2022-08-19T01:01:08;3.30;;;2.60;;
59872;SDS011;50750;51.636;4.948;2022-08-19T01:03:35;2.90;;;2.40;;
59872;SDS011;50750;51.636;4.948;2022-08-19T01:06:01;3.70;;;2.40;;
59872;SDS011;50750;51.636;4.948;2022-08-19T01:08:28;3.20;;;2.20;;
59872;SDS011;50750;51.636;4.948;2022-08-19T01:10:56;2.90;;;2.30;;
59872;SDS011;50750;51.636;4.948;2022-08-19T01:13:26;2.80;;;2.30;;
59872;SDS011;50750;51.636;4.948;2022-08-19T01:16:00;3.60;;;2.50;;
59872;SDS011;50750;51.636;4.948;2022-08-19T01:18:29;3.30;;;2.40;;
59872;SDS011;50750;51.636;4.948;2022-08-19T01:20:58;3.60;;;2.60;;
59872;SDS011;50750;51.636;4.948;2022-08-19T01:23:32;3.40;;;2.30;;
59872;SDS011;50750;51.636;4.948;2022-08-19T01:26:15;3.60;;;2.60;;
59872;SDS011;50750;51.636;4.948;2022-08-19T01:28:48;3.70;;;2.40;;
59872;SDS011;50750;51.636;4.948;2022-08-19T01:31:19;3.40;;;2.30;;
59872;SDS011;50750;51.636;4.948;2022-08-19T01:33:50;3.80;;;2.50;;
59872;SDS011;50750;51.636;4.948;2022-08-19T01:36:22;3.60;;;2.40;;
59872;SDS011;50750;51.636;4.948;2022-08-19T01:38:55;2.70;;;2.10;;
59872;SDS011;50750;51.636;4.948;2022-08-19T01:41:22;3.30;;;2.20;;
59872;SDS011;50750;51.636;4.948;2022-08-19T01:43:50;3.10;;;2.10;;
59872;SDS011;50750;51.636;4.948;2022-08-19T01:46:18;2.90;;;2.40;;
59872;SDS011;50750;51.636;4.948;2022-08-19T01:48:45;2.80;;;2.10;;
59872;SDS011;50750;51.636;4.948;2022-08-19T01:51:12;4.00;;;2.30;;
59872;SDS011;50750;51.636;4.948;2022-08-19T01:53:39;2.90;;;2.10;;
59872;SDS011;50750;51.636;4.948;2022-08-19T01:56:07;2.90;;;2.10;;
59872;SDS011;50750;51.636;4.948;2022-08-19T01:58:41;2.90;;;2.30;;
59872;SDS011;50750;51.636;4.948;2022-08-19T02:01:14;3.10;;;2.10;;
59872;SDS011;50750;51.636;4.948;2022-08-19T02:03:41;2.80;;;2.00;;
59872;SDS011;50750;51.636;4.948;2022-08-19T02:06:07;3.20;;;2.10;;
59872;SDS011;50750;51.636;4.948;2022-08-19T02:08:35;2.80;;;2.00;;
59872;SDS011;50750;51.636;4.948;2022-08-19T02:11:03;2.70;;;2.10;;
59872;SDS011;50750;51.636;4.948;2022-08-19T02:13:31;3.60;;;2.00;;
59872;SDS011;50750;51.636;4.948;2022-08-19T02:15:57;3.30;;;2.20;;
59872;SDS011;50750;51.636;4.948;2022-08-19T02:18:24;3.60;;;2.50;;
59872;SDS011;50750;51.636;4.948;2022-08-19T02:20:52;3.70;;;2.40;;
59872;SDS011;50750;51.636;4.948;2022-08-19T02:23:19;3.30;;;2.30;;
59872;SDS011;50750;51.636;4.948;2022-08-19T02:25:46;3.30;;;2.30;;
59872;SDS011;50750;51.636;4.948;2022-08-19T02:28:14;2.70;;;2.10;;
59872;SDS011;50750;51.636;4.948;2022-08-19T02:30:41;3.20;;;2.20;;
59872;SDS011;50750;51.636;4.948;2022-08-19T02:33:07;3.10;;;2.10;;
59872;SDS011;50750;51.636;4.948;2022-08-19T02:35:34;3.10;;;2.30;;
59872;SDS011;50750;51.636;4.948;2022-08-19T02:38:00;3.30;;;2.20;;
59872;SDS011;50750;51.636;4.948;2022-08-19T02:40:49;2.90;;;2.00;;
59872;SDS011;50750;51.636;4.948;2022-08-19T02:43:17;2.70;;;2.10;;
59872;SDS011;50750;51.636;4.948;2022-08-19T02:45:46;3.10;;;2.10;;
59872;SDS011;50750;51.636;4.948;2022-08-19T02:48:21;3.30;;;2.20;;
59872;SDS011;50750;51.636;4.948;2022-08-19T02:50:50;2.90;;;2.10;;
59872;SDS011;50750;51.636;4.948;2022-08-19T02:53:22;3.40;;;2.30;;
59872;SDS011;50750;51.636;4.948;2022-08-19T02:58:17;3.30;;;2.30;;
59872;SDS011;50750;51.636;4.948;2022-08-19T03:00:46;3.20;;;2.10;;
59872;SDS011;50750;51.636;4.948;2022-08-19T03:03:15;3.10;;;2.40;;
59872;SDS011;50750;51.636;4.948;2022-08-19T03:05:42;3.60;;;2.70;;
59872;SDS011;50750;51.636;4.948;2022-08-19T03:08:09;3.60;;;2.70;;
59872;SDS011;50750;51.636;4.948;2022-08-19T03:10:42;4.00;;;3.00;;
59872;SDS011;50750;51.636;4.948;2022-08-19T03:13:11;3.70;;;2.70;;
59872;SDS011;50750;51.636;4.948;2022-08-19T03:15:44;4.00;;;2.90;;
59872;SDS011;50750;51.636;4.948;2022-08-19T03:18:13;3.20;;;2.50;;
59872;SDS011;50750;51.636;4.948;2022-08-19T03:20:45;3.20;;;2.50;;
59872;SDS011;50750;51.636;4.948;2022-08-19T03:23:15;3.70;;;2.70;;
59872;SDS011;50750;51.636;4.948;2022-08-19T03:25:45;3.00;;;2.40;;
59872;SDS011;50750;51.636;4.948;2022-08-19T03:28:14;3.20;;;2.50;;
59872;SDS011;50750;51.636;4.948;2022-08-19T03:30:42;3.70;;;2.70;;
59872;SDS011;50750;51.636;4.948;2022-08-19T03:33:22;3.00;;;2.20;;
59872;SDS011;50750;51.636;4.948;2022-08-19T03:35:59;3.60;;;2.50;;
59872;SDS011;50750;51.636;4.948;2022-08-19T03:38:30;4.00;;;2.60;;
59872;SDS011;50750;51.636;4.948;2022-08-19T03:41:01;3.90;;;2.30;;
59872;SDS011;50750;51.636;4.948;2022-08-19T03:43:29;3.00;;;2.30;;
59872;SDS011;50750;51.636;4.948;2022-08-19T03:46:03;4.00;;;2.60;;
59872;SDS011;50750;51.636;4.948;2022-08-19T03:48:32;3.30;;;2.70;;
59872;SDS011;50750;51.636;4.948;2022-08-19T03:51:00;3.80;;;2.80;;
59872;SDS011;50750;51.636;4.948;2022-08-19T03:53:27;4.40;;;3.00;;
59872;SDS011;50750;51.636;4.948;2022-08-19T03:55:55;4.00;;;3.10;;
59872;SDS011;50750;51.636;4.948;2022-08-19T03:58:24;3.70;;;2.80;;
59872;SDS011;50750;51.636;4.948;2022-08-19T04:00:50;3.50;;;2.60;;
59872;SDS011;50750;51.636;4.948;2022-08-19T04:03:17;4.10;;;3.10;;
59872;SDS011;50750;51.636;4.948;2022-08-19T04:05:45;3.60;;;2.90;;
59872;SDS011;50750;51.636;4.948;2022-08-19T04:08:13;4.00;;;3.00;;
59872;SDS011;50750;51.636;4.948;2022-08-19T04:10:47;3.70;;;2.70;;
59872;SDS011;50750;51.636;4.948;2022-08-19T04:13:17;3.20;;;2.50;;
59872;SDS011;50750;51.636;4.948;2022-08-19T04:15:44;3.30;;;2.40;;
59872;SDS011;50750;51.636;4.948;2022-08-19T04:18:12;3.60;;;2.60;;
59872;SDS011;50750;51.636;4.948;2022-08-19T04:20:40;3.40;;;2.40;;
59872;SDS011;50750;51.636;4.948;2022-08-19T04:23:08;3.90;;;2.80;;
59872;SDS011;50750;51.636;4.948;2022-08-19T04:25:39;3.90;;;2.70;;
59872;SDS011;50750;51.636;4.948;2022-08-19T04:28:07;4.20;;;2.60;;
59872;SDS011;50750;51.636;4.948;2022-08-19T04:30:43;3.90;;;2.60;;
59872;SDS011;50750;51.636;4.948;2022-08-19T04:33:12;3.30;;;2.60;;
59872;SDS011;50750;51.636;4.948;2022-08-19T04:35:41;3.50;;;2.50;;
59872;SDS011;50750;51.636;4.948;2022-08-19T04:38:11;3.90;;;3.00;;
59872;SDS011;50750;51.636;4.948;2022-08-19T04:40:46;3.20;;;2.50;;
59872;SDS011;50750;51.636;4.948;2022-08-19T04:43:33;3.90;;;2.90;;
59872;SDS011;50750;51.636;4.948;2022-08-19T04:46:08;3.70;;;2.70;;
59872;SDS011;50750;51.636;4.948;2022-08-19T04:48:37;4.20;;;2.90;;
59872;SDS011;50750;51.636;4.948;2022-08-19T04:51:09;3.60;;;2.60;;
59872;SDS011;50750;51.636;4.948;2022-08-19T04:53:39;3.80;;;3.00;;
59872;SDS011;50750;51.636;4.948;2022-08-19T04:56:08;3.60;;;2.80;;
59872;SDS011;50750;51.636;4.948;2022-08-19T04:58:37;3.80;;;2.80;;
59872;SDS011;50750;51.636;4.948;2022-08-19T05:01:07;3.10;;;2.60;;
59872;SDS011;50750;51.636;4.948;2022-08-19T05:03:35;4.70;;;3.10;;
59872;SDS011;50750;51.636;4.948;2022-08-19T05:06:05;4.30;;;3.10;;
59872;SDS011;50750;51.636;4.948;2022-08-19T05:08:33;3.70;;;2.90;;
59872;SDS011;50750;51.636;4.948;2022-08-19T05:11:07;3.80;;;3.10;;
59872;SDS011;50750;51.636;4.948;2022-08-19T05:13:37;4.40;;;3.10;;
59872;SDS011;50750;51.636;4.948;2022-08-19T05:16:04;3.80;;;2.90;;
59872;SDS011;50750;51.636;4.948;2022-08-19T05:18:31;3.70;;;2.80;;
59872;SDS011;50750;51.636;4.948;2022-08-19T05:21:18;3.40;;;2.80;;
59872;SDS011;50750;51.636;4.948;2022-08-19T05:24:04;4.00;;;2.90;;
59872;SDS011;50750;51.636;4.948;2022-08-19T05:26:35;4.10;;;2.90;;
59872;SDS011;50750;51.636;4.948;2022-08-19T05:29:06;4.00;;;2.90;;
59872;SDS011;50750;51.636;4.948;2022-08-19T05:31:34;3.60;;;2.90;;
59872;SDS011;50750;51.636;4.948;2022-08-19T05:34:02;3.70;;;2.80;;
59872;SDS011;50750;51.636;4.948;2022-08-19T05:36:32;4.10;;;2.80;;
59872;SDS011;50750;51.636;4.948;2022-08-19T05:39:02;3.90;;;2.90;;
59872;SDS011;50750;51.636;4.948;2022-08-19T05:41:30;3.60;;;2.80;;
59872;SDS011;50750;51.636;4.948;2022-08-19T05:43:57;4.20;;;3.20;;
59872;SDS011;50750;51.636;4.948;2022-08-19T05:46:26;4.70;;;3.00;;
59872;SDS011;50750;51.636;4.948;2022-08-19T05:48:54;3.80;;;2.70;;
59872;SDS011;50750;51.636;4.948;2022-08-19T05:51:22;5.10;;;3.10;;
59872;SDS011;50750;51.636;4.948;2022-08-19T05:53:51;3.90;;;2.90;;
59872;SDS011;50750;51.636;4.948;2022-08-19T05:56:17;3.50;;;2.80;;
59872;SDS011;50750;51.636;4.948;2022-08-19T05:58:44;3.90;;;2.80;;
59872;SDS011;50750;51.636;4.948;2022-08-19T06:01:12;4.60;;;3.20;;
59872;SDS011;50750;51.636;4.948;2022-08-19T06:03:41;4.70;;;3.00;;
59872;SDS011;50750;51.636;4.948;2022-08-19T06:06:08;4.70;;;3.20;;
59872;SDS011;50750;51.636;4.948;2022-08-19T06:08:36;4.60;;;3.50;;
59872;SDS011;50750;51.636;4.948;2022-08-19T06:13:43;4.10;;;3.30;;
59872;SDS011;50750;51.636;4.948;2022-08-19T06:16:13;4.20;;;3.10;;
59872;SDS011;50750;51.636;4.948;2022-08-19T06:18:46;4.00;;;2.70;;
59872;SDS011;50750;51.636;4.948;2022-08-19T06:21:13;4.00;;;3.30;;
59872;SDS011;50750;51.636;4.948;2022-08-19T06:23:40;5.00;;;3.10;;
59872;SDS011;50750;51.636;4.948;2022-08-19T06:26:10;4.30;;;3.40;;
59872;SDS011;50750;51.636;4.948;2022-08-19T06:28:38;4.10;;;3.10;;
59872;SDS011;50750;51.636;4.948;2022-08-19T06:31:09;5.20;;;3.50;;
59872;SDS011;50750;51.636;4.948;2022-08-19T06:33:35;4.20;;;3.20;;
59872;SDS011;50750;51.636;4.948;2022-08-19T06:36:03;4.60;;;3.00;;
59872;SDS011;50750;51.636;4.948;2022-08-19T06:38:31;5.10;;;3.50;;
59872;SDS011;50750;51.636;4.948;2022-08-19T06:41:03;3.80;;;2.90;;
59872;SDS011;50750;51.636;4.948;2022-08-19T06:43:30;4.30;;;3.30;;
59872;SDS011;50750;51.636;4.948;2022-08-19T06:45:57;4.60;;;3.40;;
59872;SDS011;50750;51.636;4.948;2022-08-19T06:48:25;4.20;;;3.30;;
59872;SDS011;50750;51.636;4.948;2022-08-19T06:50:51;4.20;;;3.40;;
59872;SDS011;50750;51.636;4.948;2022-08-19T06:53:18;3.90;;;3.10;;
59872;SDS011;50750;51.636;4.948;2022-08-19T06:55:45;4.00;;;2.80;;
59872;SDS011;50750;51.636;4.948;2022-08-19T06:58:12;4.50;;;3.20;;
59872;SDS011;50750;51.636;4.948;2022-08-19T07:00:38;3.70;;;3.20;;
59872;SDS011;50750;51.636;4.948;2022-08-19T07:03:06;3.80;;;3.10;;
59872;SDS011;50750;51.636;4.948;2022-08-19T07:05:37;4.30;;;3.10;;
59872;SDS011;50750;51.636;4.948;2022-08-19T07:08:05;4.00;;;3.20;;
59872;SDS011;50750;51.636;4.948;2022-08-19T07:10:33;4.90;;;3.40;;
59872;SDS011;50750;51.636;4.948;2022-08-19T07:13:01;3.90;;;2.90;;
59872;SDS011;50750;51.636;4.948;2022-08-19T07:15:27;5.70;;;3.60;;
59872;SDS011;50750;51.636;4.948;2022-08-19T07:17:54;4.70;;;3.10;;
59872;SDS011;50750;51.636;4.948;2022-08-19T07:20:20;4.00;;;3.20;;
59872;SDS011;50750;51.636;4.948;2022-08-19T07:22:47;3.90;;;3.10;;
59872;SDS011;50750;51.636;4.948;2022-08-19T07:25:14;4.40;;;3.30;;
59872;SDS011;50750;51.636;4.948;2022-08-19T07:27:42;4.70;;;3.10;;
59872;SDS011;50750;51.636;4.948;2022-08-19T07:30:08;3.90;;;2.90;;
59872;SDS011;50750;51.636;4.948;2022-08-19T07:32:36;4.90;;;3.20;;
59872;SDS011;50750;51.636;4.948;2022-08-19T07:35:03;4.00;;;2.90;;
59872;SDS011;50750;51.636;4.948;2022-08-19T07:37:30;6.00;;;3.40;;
59872;SDS011;50750;51.636;4.948;2022-08-19T07:39:57;4.80;;;3.30;;
59872;SDS011;50750;51.636;4.948;2022-08-19T07:42:23;4.20;;;3.30;;
59872;SDS011;50750;51.636;4.948;2022-08-19T07:44:51;4.40;;;3.20;;
59872;SDS011;50750;51.636;4.948;2022-08-19T07:47:18;4.80;;;3.10;;
59872;SDS011;50750;51.636;4.948;2022-08-19T07:49:45;4.20;;;3.10;;
59872;SDS011;50750;51.636;4.948;2022-08-19T07:52:11;4.10;;;3.20;;
59872;SDS011;50750;51.636;4.948;2022-08-19T07:54:38;4.60;;;3.30;;
59872;SDS011;50750;51.636;4.948;2022-08-19T07:57:07;4.50;;;3.10;;
59872;SDS011;50750;51.636;4.948;2022-08-19T07:59:34;5.20;;;3.30;;
59872;SDS011;50750;51.636;4.948;2022-08-19T08:02:01;5.40;;;3.40;;
59872;SDS011;50750;51.636;4.948;2022-08-19T08:04:29;5.30;;;3.20;;
59872;SDS011;50750;51.636;4.948;2022-08-19T08:07:15;4.50;;;3.20;;
59872;SDS011;50750;51.636;4.948;2022-08-19T08:10:00;5.10;;;3.10;;
59872;SDS011;50750;51.636;4.948;2022-08-19T08:12:29;4.00;;;3.20;;
59872;SDS011;50750;51.636;4.948;2022-08-19T08:14:59;4.50;;;3.20;;
59872;SDS011;50750;51.636;4.948;2022-08-19T08:17:30;5.10;;;3.50;;
59872;SDS011;50750;51.636;4.948;2022-08-19T08:19:58;4.50;;;3.20;;
59872;SDS011;50750;51.636;4.948;2022-08-19T08:22:25;4.70;;;3.20;;
59872;SDS011;50750;51.636;4.948;2022-08-19T08:25:15;4.70;;;3.30;;
59872;SDS011;50750;51.636;4.948;2022-08-19T08:27:46;4.10;;;3.30;;
59872;SDS011;50750;51.636;4.948;2022-08-19T08:30:18;4.20;;;3.00;;
59872;SDS011;50750;51.636;4.948;2022-08-19T08:32:46;4.90;;;3.50;;
59872;SDS011;50750;51.636;4.948;2022-08-19T08:35:14;4.60;;;3.60;;
59872;SDS011;50750;51.636;4.948;2022-08-19T08:37:44;4.90;;;3.40;;
59872;SDS011;50750;51.636;4.948;2022-08-19T08:45:32;3.80;;;3.10;;
59872;SDS011;50750;51.636;4.948;2022-08-19T08:48:08;4.80;;;3.20;;
59872;SDS011;50750;51.636;4.948;2022-08-19T08:50:46;4.50;;;3.10;;
59872;SDS011;50750;51.636;4.948;2022-08-19T08:53:17;4.10;;;3.30;;
59872;SDS011;50750;51.636;4.948;2022-08-19T08:55:45;5.00;;;3.10;;
59872;SDS011;50750;51.636;4.948;2022-08-19T08:58:17;4.60;;;3.40;;
59872;SDS011;50750;51.636;4.948;2022-08-19T09:00:52;4.40;;;3.50;;
59872;SDS011;50750;51.636;4.948;2022-08-19T09:03:20;5.40;;;3.40;;
59872;SDS011;50750;51.636;4.948;2022-08-19T09:14:08;4.40;;;3.70;;
59872;SDS011;50750;51.636;4.948;2022-08-19T09:16:37;5.40;;;3.50;;
59872;SDS011;50750;51.636;4.948;2022-08-19T09:19:06;4.00;;;2.80;;
59872;SDS011;50750;51.636;4.948;2022-08-19T09:21:34;4.90;;;3.10;;
59872;SDS011;50750;51.636;4.948;2022-08-19T09:24:01;4.80;;;3.30;;
59872;SDS011;50750;51.636;4.948;2022-08-19T09:26:28;4.40;;;3.40;;
59872;SDS011;50750;51.636;4.948;2022-08-19T09:28:55;4.60;;;3.20;;
59872;SDS011;50750;51.636;4.948;2022-08-19T09:31:25;4.30;;;3.30;;
59872;SDS011;50750;51.636;4.948;2022-08-19T09:33:54;4.00;;;3.20;;
59872;SDS011;50750;51.636;4.948;2022-08-19T09:36:24;4.70;;;3.20;;
59872;SDS011;50750;51.636;4.948;2022-08-19T09:38:54;4.60;;;3.40;;
59872;SDS011;50750;51.636;4.948;2022-08-19T09:41:22;4.00;;;3.00;;
59872;SDS011;50750;51.636;4.948;2022-08-19T09:43:51;4.20;;;3.40;;
59872;SDS011;50750;51.636;4.948;2022-08-19T09:46:22;4.50;;;3.20;;
59872;SDS011;50750;51.636;4.948;2022-08-19T09:48:52;4.20;;;3.10;;
59872;SDS011;50750;51.636;4.948;2022-08-19T09:51:22;4.50;;;3.30;;
59872;SDS011;50750;51.636;4.948;2022-08-19T09:53:52;4.40;;;3.10;;
59872;SDS011;50750;51.636;4.948;2022-08-19T09:58:48;4.60;;;3.20;;
59872;SDS011;50750;51.636;4.948;2022-08-19T10:01:16;4.10;;;3.30;;
59872;SDS011;50750;51.636;4.948;2022-08-19T10:03:54;4.40;;;3.10;;
59872;SDS011;50750;51.636;4.948;2022-08-19T10:06:23;4.10;;;3.00;;
59872;SDS011;50750;51.636;4.948;2022-08-19T10:08:55;5.10;;;3.70;;
59872;SDS011;50750;51.636;4.948;2022-08-19T10:11:22;4.80;;;3.10;;
59872;SDS011;50750;51.636;4.948;2022-08-19T10:13:49;4.90;;;3.50;;
59872;SDS011;50750;51.636;4.948;2022-08-19T10:16:17;4.50;;;3.40;;
59872;SDS011;50750;51.636;4.948;2022-08-19T10:18:48;4.20;;;3.20;;
59872;SDS011;50750;51.636;4.948;2022-08-19T10:21:16;4.40;;;3.40;;
59872;SDS011;50750;51.636;4.948;2022-08-19T10:23:49;4.20;;;3.10;;
59872;SDS011;50750;51.636;4.948;2022-08-19T10:26:22;3.90;;;3.00;;
59872;SDS011;50750;51.636;4.948;2022-08-19T10:28:55;3.70;;;3.10;;
59872;SDS011;50750;51.636;4.948;2022-08-19T10:31:26;4.30;;;3.20;;
59872;SDS011;50750;51.636;4.948;2022-08-19T10:33:55;4.10;;;3.40;;
59872;SDS011;50750;51.636;4.948;2022-08-19T10:39:04;4.70;;;3.00;;
59872;SDS011;50750;51.636;4.948;2022-08-19T10:41:33;4.60;;;3.40;;
59872;SDS011;50750;51.636;4.948;2022-08-19T10:44:04;5.50;;;3.70;;
59872;SDS011;50750;51.636;4.948;2022-08-19T10:46:35;4.70;;;3.40;;
59872;SDS011;50750;51.636;4.948;2022-08-19T10:49:04;5.00;;;3.50;;
59872;SDS011;50750;51.636;4.948;2022-08-19T10:51:32;4.50;;;3.20;;
59872;SDS011;50750;51.636;4.948;2022-08-19T10:54:17;3.90;;;3.00;;
59872;SDS011;50750;51.636;4.948;2022-08-19T10:56:44;4.80;;;3.40;;
59872;SDS011;50750;51.636;4.948;2022-08-19T10:59:27;4.80;;;3.20;;
59872;SDS011;50750;51.636;4.948;2022-08-19T11:01:58;4.70;;;3.70;;
59872;SDS011;50750;51.636;4.948;2022-08-19T11:04:26;4.70;;;3.30;;
59872;SDS011;50750;51.636;4.948;2022-08-19T11:06:53;4.40;;;3.30;;
59872;SDS011;50750;51.636;4.948;2022-08-19T11:09:21;4.40;;;3.60;;
59872;SDS011;50750;51.636;4.948;2022-08-19T11:11:52;4.70;;;3.20;;
59872;SDS011;50750;51.636;4.948;2022-08-19T11:14:19;5.10;;;3.60;;
59872;SDS011;50750;51.636;4.948;2022-08-19T11:16:48;4.80;;;3.70;;
59872;SDS011;50750;51.636;4.948;2022-08-19T11:19:15;4.70;;;3.50;;
59872;SDS011;50750;51.636;4.948;2022-08-19T11:21:46;4.60;;;3.40;;
59872;SDS011;50750;51.636;4.948;2022-08-19T11:24:16;5.20;;;3.50;;
59872;SDS011;50750;51.636;4.948;2022-08-19T11:26:50;4.60;;;3.70;;
59872;SDS011;50750;51.636;4.948;2022-08-19T11:29:19;4.90;;;3.70;;
59872;SDS011;50750;51.636;4.948;2022-08-19T11:31:48;5.30;;;3.50;;
59872;SDS011;50750;51.636;4.948;2022-08-19T11:34:18;4.60;;;3.50;;
59872;SDS011;50750;51.636;4.948;2022-08-19T11:36:47;4.60;;;3.60;;
59872;SDS011;50750;51.636;4.948;2022-08-19T11:39:16;5.20;;;3.50;;
59872;SDS011;50750;51.636;4.948;2022-08-19T11:41:45;5.10;;;3.60;;
59872;SDS011;50750;51.636;4.948;2022-08-19T11:44:12;5.20;;;3.40;;
59872;SDS011;50750;51.636;4.948;2022-08-19T11:46:41;5.40;;;3.70;;
59872;SDS011;50750;51.636;4.948;2022-08-19T11:49:16;4.40;;;3.40;;
59872;SDS011;50750;51.636;4.948;2022-08-19T11:51:45;4.80;;;3.70;;
59872;SDS011;50750;51.636;4.948;2022-08-19T11:54:13;5.60;;;3.50;;
59872;SDS011;50750;51.636;4.948;2022-08-19T11:56:42;5.10;;;3.80;;
59872;SDS011;50750;51.636;4.948;2022-08-19T11:59:08;5.80;;;3.90;;
59872;SDS011;50750;51.636;4.948;2022-08-19T12:01:36;4.80;;;3.90;;
59872;SDS011;50750;51.636;4.948;2022-08-19T12:04:03;6.00;;;4.20;;
59872;SDS011;50750;51.636;4.948;2022-08-19T12:06:33;5.20;;;4.10;;
59872;SDS011;50750;51.636;4.948;2022-08-19T12:09:04;5.20;;;4.30;;
59872;SDS011;50750;51.636;4.948;2022-08-19T12:11:32;5.10;;;4.10;;
59872;SDS011;50750;51.636;4.948;2022-08-19T12:13:59;4.50;;;3.60;;
59872;SDS011;50750;51.636;4.948;2022-08-19T12:16:26;6.10;;;4.10;;
59872;SDS011;50750;51.636;4.948;2022-08-19T12:18:54;5.40;;;3.90;;
59872;SDS011;50750;51.636;4.948;2022-08-19T12:21:23;5.60;;;3.90;;
59872;SDS011;50750;51.636;4.948;2022-08-19T12:23:55;4.70;;;3.80;;
59872;SDS011;50750;51.636;4.948;2022-08-19T12:26:24;4.90;;;4.10;;
59872;SDS011;50750;51.636;4.948;2022-08-19T12:28:52;4.80;;;3.80;;
59872;SDS011;50750;51.636;4.948;2022-08-19T12:31:19;4.60;;;3.60;;
59872;SDS011;50750;51.636;4.948;2022-08-19T12:33:46;4.30;;;3.90;;
59872;SDS011;50750;51.636;4.948;2022-08-19T12:36:14;4.90;;;3.80;;
59872;SDS011;50750;51.636;4.948;2022-08-19T12:38:43;5.30;;;4.00;;
59872;SDS011;50750;51.636;4.948;2022-08-19T12:41:11;4.90;;;4.00;;
59872;SDS011;50750;51.636;4.948;2022-08-19T12:43:41;7.10;;;4.40;;
59872;SDS011;50750;51.636;4.948;2022-08-19T12:46:08;5.70;;;4.10;;
59872;SDS011;50750;51.636;4.948;2022-08-19T12:48:36;4.80;;;3.80;;
59872;SDS011;50750;51.636;4.948;2022-08-19T12:51:08;5.00;;;4.00;;
59872;SDS011;50750;51.636;4.948;2022-08-19T12:53:37;6.30;;;4.50;;
59872;SDS011;50750;51.636;4.948;2022-08-19T12:56:03;5.20;;;4.00;;
59872;SDS011;50750;51.636;4.948;2022-08-19T12:58:31;5.80;;;4.20;;
59872;SDS011;50750;51.636;4.948;2022-08-19T13:03:37;4.90;;;4.10;;
59872;SDS011;50750;51.636;4.948;2022-08-19T13:06:04;5.10;;;4.10;;
59872;SDS011;50750;51.636;4.948;2022-08-19T13:08:31;5.50;;;4.40;;
59872;SDS011;50750;51.636;4.948;2022-08-19T13:11:05;5.10;;;4.00;;
59872;SDS011;50750;51.636;4.948;2022-08-19T13:13:34;5.40;;;4.30;;
59872;SDS011;50750;51.636;4.948;2022-08-19T13:16:00;5.20;;;4.20;;
59872;SDS011;50750;51.636;4.948;2022-08-19T13:18:31;6.00;;;4.60;;
59872;SDS011;50750;51.636;4.948;2022-08-19T13:21:01;5.40;;;4.40;;
59872;SDS011;50750;51.636;4.948;2022-08-19T13:23:30;5.50;;;4.40;;
59872;SDS011;50750;51.636;4.948;2022-08-19T13:26:01;5.20;;;4.30;;
59872;SDS011;50750;51.636;4.948;2022-08-19T13:28:31;5.50;;;4.30;;
59872;SDS011;50750;51.636;4.948;2022-08-19T13:31:18;5.20;;;4.30;;
59872;SDS011;50750;51.636;4.948;2022-08-19T13:34:06;5.20;;;4.40;;
59872;SDS011;50750;51.636;4.948;2022-08-19T13:36:33;5.10;;;4.50;;
59872;SDS011;50750;51.636;4.948;2022-08-19T13:39:01;5.70;;;4.60;;
59872;SDS011;50750;51.636;4.948;2022-08-19T13:41:28;5.40;;;4.40;;
59872;SDS011;50750;51.636;4.948;2022-08-19T13:43:55;5.60;;;4.60;;
59872;SDS011;50750;51.636;4.948;2022-08-19T13:46:21;5.30;;;4.20;;
59872;SDS011;50750;51.636;4.948;2022-08-19T13:48:48;4.90;;;4.20;;
59872;SDS011;50750;51.636;4.948;2022-08-19T13:51:15;4.80;;;4.20;;
59872;SDS011;50750;51.636;4.948;2022-08-19T13:53:43;5.50;;;4.10;;
59872;SDS011;50750;51.636;4.948;2022-08-19T13:56:12;5.30;;;4.10;;
59872;SDS011;50750;51.636;4.948;2022-08-19T13:58:40;5.90;;;4.50;;
59872;SDS011;50750;51.636;4.948;2022-08-19T14:01:07;5.50;;;4.50;;
59872;SDS011;50750;51.636;4.948;2022-08-19T14:03:35;5.60;;;4.00;;
59872;SDS011;50750;51.636;4.948;2022-08-19T14:06:02;5.00;;;3.80;;
59872;SDS011;50750;51.636;4.948;2022-08-19T14:08:29;5.00;;;4.50;;
59872;SDS011;50750;51.636;4.948;2022-08-19T14:10:58;5.10;;;4.20;;
59872;SDS011;50750;51.636;4.948;2022-08-19T14:13:25;5.00;;;4.10;;
59872;SDS011;50750;51.636;4.948;2022-08-19T14:15:52;5.20;;;4.00;;
59872;SDS011;50750;51.636;4.948;2022-08-19T14:18:19;4.40;;;4.00;;
59872;SDS011;50750;51.636;4.948;2022-08-19T14:20:45;4.80;;;4.10;;
59872;SDS011;50750;51.636;4.948;2022-08-19T14:23:12;5.10;;;4.20;;
59872;SDS011;50750;51.636;4.948;2022-08-19T14:25:39;5.80;;;4.50;;
59872;SDS011;50750;51.636;4.948;2022-08-19T14:28:06;5.70;;;4.70;;
59872;SDS011;50750;51.636;4.948;2022-08-19T14:30:34;5.30;;;4.40;;
59872;SDS011;50750;51.636;4.948;2022-08-19T14:33:04;5.60;;;4.30;;
59872;SDS011;50750;51.636;4.948;2022-08-19T14:38:04;4.90;;;4.10;;
59872;SDS011;50750;51.636;4.948;2022-08-19T14:40:32;5.50;;;4.50;;
59872;SDS011;50750;51.636;4.948;2022-08-19T14:43:00;6.10;;;4.50;;
59872;SDS011;50750;51.636;4.948;2022-08-19T14:45:31;5.20;;;4.00;;
59872;SDS011;50750;51.636;4.948;2022-08-19T14:48:00;5.70;;;4.60;;
59872;SDS011;50750;51.636;4.948;2022-08-19T14:50:27;6.20;;;4.90;;
59872;SDS011;50750;51.636;4.948;2022-08-19T14:53:01;5.70;;;4.50;;
59872;SDS011;50750;51.636;4.948;2022-08-19T14:55:31;6.50;;;5.10;;
59872;SDS011;50750;51.636;4.948;2022-08-19T14:57:58;5.80;;;4.60;;
59872;SDS011;50750;51.636;4.948;2022-08-19T15:00:25;5.20;;;4.30;;
59872;SDS011;50750;51.636;4.948;2022-08-19T15:02:52;7.30;;;4.50;;
59872;SDS011;50750;51.636;4.948;2022-08-19T15:05:20;6.90;;;4.80;;
59872;SDS011;50750;51.636;4.948;2022-08-19T15:07:47;5.90;;;4.50;;
59872;SDS011;50750;51.636;4.948;2022-08-19T15:10:14;5.20;;;4.50;;
59872;SDS011;50750;51.636;4.948;2022-08-19T15:12:41;5.40;;;4.40;;
59872;SDS011;50750;51.636;4.948;2022-08-19T15:15:10;5.30;;;4.30;;
59872;SDS011;50750;51.636;4.948;2022-08-19T15:17:39;5.30;;;4.30;;
59872;SDS011;50750;51.636;4.948;2022-08-19T15:20:07;4.90;;;4.10;;
59872;SDS011;50750;51.636;4.948;2022-08-19T15:22:35;5.80;;;4.30;;
59872;SDS011;50750;51.636;4.948;2022-08-19T15:25:03;5.90;;;4.60;;
59872;SDS011;50750;51.636;4.948;2022-08-19T15:27:31;5.20;;;4.30;;
59872;SDS011;50750;51.636;4.948;2022-08-19T15:29:58;5.70;;;4.70;;
59872;SDS011;50750;51.636;4.948;2022-08-19T15:32:24;5.70;;;4.50;;